sensor_id;sensor_type;location;lat;lon;timestamp;temperature;humidity
45969;DHT22;31676;40.444;-3.668;2023-03-21T00:00:16;22.60;76.30
45969;DHT22;31676;40.444;-3.668;2023-03-21T00:02:42;22.60;76.30
45969;DHT22;31676;40.444;-3.668;2023-03-21T00:05:07;22.60;76.30
45969;DHT22;31676;40.444;-3.668;2023-03-21T00:07:33;22.60;76.30
45969;DHT22;31676;40.444;-3.668;2023-03-21T00:09:59;22.60;76.30
45969;DHT22;31676;40.444;-3.668;2023-03-21T00:12:25;22.60;76.30
45969;DHT22;31676;40.444;-3.668;2023-03-21T00:14:51;22.60;76.30
45969;DHT22;31676;40.444;-3.668;2023-03-21T00:17:18;22.60;76.30
45969;DHT22;31676;40.444;-3.668;2023-03-21T00:19:46;22.60;76.40
45969;DHT22;31676;40.444;-3.668;2023-03-21T00:22:13;22.60;76.30
45969;DHT22;31676;40.444;-3.668;2023-03-21T00:24:39;22.60;76.30
45969;DHT22;31676;40.444;-3.668;2023-03-21T00:27:05;22.60;76.40
45969;DHT22;31676;40.444;-3.668;2023-03-21T00:29:31;22.60;76.30
45969;DHT22;31676;40.444;-3.668;2023-03-21T00:31:57;22.60;76.30
45969;DHT22;31676;40.444;-3.668;2023-03-21T00:34:22;22.60;76.30
45969;DHT22;31676;40.444;-3.668;2023-03-21T00:36:48;22.60;76.30
45969;DHT22;31676;40.444;-3.668;2023-03-21T00:39:14;22.60;76.30
45969;DHT22;31676;40.444;-3.668;2023-03-21T00:41:39;22.60;76.30
45969;DHT22;31676;40.444;-3.668;2023-03-21T00:44:05;22.60;76.30
45969;DHT22;31676;40.444;-3.668;2023-03-21T00:46:31;22.60;76.40
45969;DHT22;31676;40.444;-3.668;2023-03-21T00:48:57;22.60;76.30
45969;DHT22;31676;40.444;-3.668;2023-03-21T00:51:23;22.60;76.30
45969;DHT22;31676;40.444;-3.668;2023-03-21T00:53:55;22.60;76.40
45969;DHT22;31676;40.444;-3.668;2023-03-21T00:56:20;22.60;76.40
45969;DHT22;31676;40.444;-3.668;2023-03-21T00:58:47;22.50;76.30
45969;DHT22;31676;40.444;-3.668;2023-03-21T01:01:12;22.50;76.30
45969;DHT22;31676;40.444;-3.668;2023-03-21T01:03:38;22.60;76.40
45969;DHT22;31676;40.444;-3.668;2023-03-21T01:06:10;22.50;76.30
45969;DHT22;31676;40.444;-3.668;2023-03-21T01:08:38;22.60;76.40
45969;DHT22;31676;40.444;-3.668;2023-03-21T01:11:10;22.50;76.30
45969;DHT22;31676;40.444;-3.668;2023-03-21T01:13:36;22.50;76.30
45969;DHT22;31676;40.444;-3.668;2023-03-21T01:16:02;22.50;76.30
45969;DHT22;31676;40.444;-3.668;2023-03-21T01:18:29;22.50;76.30
45969;DHT22;31676;40.444;-3.668;2023-03-21T01:20:56;22.50;76.30
45969;DHT22;31676;40.444;-3.668;2023-03-21T01:23:22;22.50;76.30
45969;DHT22;31676;40.444;-3.668;2023-03-21T01:25:48;22.50;76.30
45969;DHT22;31676;40.444;-3.668;2023-03-21T01:28:15;22.50;76.30
45969;DHT22;31676;40.444;-3.668;2023-03-21T01:30:47;22.50;76.30
45969;DHT22;31676;40.444;-3.668;2023-03-21T01:33:13;22.50;76.30
45969;DHT22;31676;40.444;-3.668;2023-03-21T01:35:39;22.50;76.30
45969;DHT22;31676;40.444;-3.668;2023-03-21T01:38:05;22.50;76.30
45969;DHT22;31676;40.444;-3.668;2023-03-21T01:40:31;22.50;76.30
45969;DHT22;31676;40.444;-3.668;2023-03-21T01:42:57;22.50;76.30
45969;DHT22;31676;40.444;-3.668;2023-03-21T01:48:06;22.50;76.30
45969;DHT22;31676;40.444;-3.668;2023-03-21T01:50:32;22.50;76.90
45969;DHT22;31676;40.444;-3.668;2023-03-21T01:52:58;22.50;76.30
45969;DHT22;31676;40.444;-3.668;2023-03-21T01:55:25;22.50;76.30
45969;DHT22;31676;40.444;-3.668;2023-03-21T01:57:51;22.50;76.30
45969;DHT22;31676;40.444;-3.668;2023-03-21T02:00:19;22.50;76.30
45969;DHT22;31676;40.444;-3.668;2023-03-21T02:02:45;22.50;76.30
45969;DHT22;31676;40.444;-3.668;2023-03-21T02:05:31;22.50;76.30
45969;DHT22;31676;40.444;-3.668;2023-03-21T02:07:58;22.50;76.30
45969;DHT22;31676;40.444;-3.668;2023-03-21T02:10:24;22.50;76.30
45969;DHT22;31676;40.444;-3.668;2023-03-21T02:12:50;22.50;76.30
45969;DHT22;31676;40.444;-3.668;2023-03-21T02:15:19;22.50;76.30
45969;DHT22;31676;40.444;-3.668;2023-03-21T02:28:33;22.50;76.30
45969;DHT22;31676;40.444;-3.668;2023-03-21T02:38:39;22.50;76.30
45969;DHT22;31676;40.444;-3.668;2023-03-21T02:43:53;22.50;76.30
45969;DHT22;31676;40.444;-3.668;2023-03-21T02:46:21;22.40;76.20
45969;DHT22;31676;40.444;-3.668;2023-03-21T02:49:08;22.50;76.30
45969;DHT22;31676;40.444;-3.668;2023-03-21T02:51:34;22.40;76.20
45969;DHT22;31676;40.444;-3.668;2023-03-21T02:54:06;22.50;76.20
45969;DHT22;31676;40.444;-3.668;2023-03-21T02:56:33;22.50;76.30
45969;DHT22;31676;40.444;-3.668;2023-03-21T03:01:31;22.50;76.20
45969;DHT22;31676;40.444;-3.668;2023-03-21T03:03:57;22.40;76.20
45969;DHT22;31676;40.444;-3.668;2023-03-21T03:06:25;22.40;76.20
45969;DHT22;31676;40.444;-3.668;2023-03-21T03:11:22;22.40;76.20
45969;DHT22;31676;40.444;-3.668;2023-03-21T03:19:13;22.40;76.20
45969;DHT22;31676;40.444;-3.668;2023-03-21T03:22:00;22.40;76.20
45969;DHT22;31676;40.444;-3.668;2023-03-21T03:24:30;22.40;76.20
45969;DHT22;31676;40.444;-3.668;2023-03-21T03:26:59;22.40;76.20
45969;DHT22;31676;40.444;-3.668;2023-03-21T03:29:26;22.40;76.20
45969;DHT22;31676;40.444;-3.668;2023-03-21T03:34:22;22.40;76.20
45969;DHT22;31676;40.444;-3.668;2023-03-21T03:36:53;22.40;76.20
45969;DHT22;31676;40.444;-3.668;2023-03-21T03:39:21;22.40;76.20
45969;DHT22;31676;40.444;-3.668;2023-03-21T03:41:59;22.40;76.20
45969;DHT22;31676;40.444;-3.668;2023-03-21T03:44:26;22.40;76.20
45969;DHT22;31676;40.444;-3.668;2023-03-21T03:46:57;22.40;76.20
45969;DHT22;31676;40.444;-3.668;2023-03-21T03:49:26;22.40;76.20
45969;DHT22;31676;40.444;-3.668;2023-03-21T03:52:03;22.40;76.20
45969;DHT22;31676;40.444;-3.668;2023-03-21T03:54:30;22.40;76.20
45969;DHT22;31676;40.444;-3.668;2023-03-21T03:56:57;22.40;76.20
45969;DHT22;31676;40.444;-3.668;2023-03-21T03:59:24;22.40;76.20
45969;DHT22;31676;40.444;-3.668;2023-03-21T04:01:50;22.40;76.20
45969;DHT22;31676;40.444;-3.668;2023-03-21T04:04:16;22.40;76.20
45969;DHT22;31676;40.444;-3.668;2023-03-21T04:06:44;22.40;76.20
45969;DHT22;31676;40.444;-3.668;2023-03-21T04:09:16;22.40;76.20
45969;DHT22;31676;40.444;-3.668;2023-03-21T04:11:42;22.40;76.20
45969;DHT22;31676;40.444;-3.668;2023-03-21T04:14:07;22.40;76.20
45969;DHT22;31676;40.444;-3.668;2023-03-21T04:16:33;22.40;76.10
45969;DHT22;31676;40.444;-3.668;2023-03-21T04:18:59;22.40;76.20
45969;DHT22;31676;40.444;-3.668;2023-03-21T04:21:24;22.40;76.10
45969;DHT22;31676;40.444;-3.668;2023-03-21T04:23:51;22.40;76.20
45969;DHT22;31676;40.444;-3.668;2023-03-21T04:26:19;22.40;76.20
45969;DHT22;31676;40.444;-3.668;2023-03-21T04:28:45;22.40;76.20
45969;DHT22;31676;40.444;-3.668;2023-03-21T04:31:11;22.30;76.10
45969;DHT22;31676;40.444;-3.668;2023-03-21T04:33:38;22.30;76.10
45969;DHT22;31676;40.444;-3.668;2023-03-21T04:36:07;22.40;76.20
45969;DHT22;31676;40.444;-3.668;2023-03-21T04:38:34;22.40;76.20
45969;DHT22;31676;40.444;-3.668;2023-03-21T04:41:01;22.40;76.20
45969;DHT22;31676;40.444;-3.668;2023-03-21T04:43:27;22.40;76.20
45969;DHT22;31676;40.444;-3.668;2023-03-21T04:45:53;22.40;76.20
45969;DHT22;31676;40.444;-3.668;2023-03-21T04:48:19;22.40;76.20
45969;DHT22;31676;40.444;-3.668;2023-03-21T04:50:49;22.40;76.20
45969;DHT22;31676;40.444;-3.668;2023-03-21T04:53:15;22.40;76.20
45969;DHT22;31676;40.444;-3.668;2023-03-21T04:55:41;22.30;76.80
45969;DHT22;31676;40.444;-3.668;2023-03-21T04:58:06;22.30;76.10
45969;DHT22;31676;40.444;-3.668;2023-03-21T05:00:32;22.30;76.10
45969;DHT22;31676;40.444;-3.668;2023-03-21T05:03:05;22.30;76.10
45969;DHT22;31676;40.444;-3.668;2023-03-21T05:05:36;22.30;76.10
45969;DHT22;31676;40.444;-3.668;2023-03-21T05:08:03;22.30;76.10
45969;DHT22;31676;40.444;-3.668;2023-03-21T05:10:29;22.30;76.10
45969;DHT22;31676;40.444;-3.668;2023-03-21T05:12:54;22.30;76.10
45969;DHT22;31676;40.444;-3.668;2023-03-21T05:15:22;22.30;76.10
45969;DHT22;31676;40.444;-3.668;2023-03-21T05:17:48;22.30;76.10
45969;DHT22;31676;40.444;-3.668;2023-03-21T05:20:17;22.30;76.10
45969;DHT22;31676;40.444;-3.668;2023-03-21T05:22:43;22.30;76.10
45969;DHT22;31676;40.444;-3.668;2023-03-21T05:25:11;22.30;76.10
45969;DHT22;31676;40.444;-3.668;2023-03-21T05:27:37;22.30;76.10
45969;DHT22;31676;40.444;-3.668;2023-03-21T05:30:13;22.30;76.10
45969;DHT22;31676;40.444;-3.668;2023-03-21T05:32:39;22.30;76.10
45969;DHT22;31676;40.444;-3.668;2023-03-21T05:35:05;22.30;76.10
45969;DHT22;31676;40.444;-3.668;2023-03-21T05:37:31;22.30;76.10
45969;DHT22;31676;40.444;-3.668;2023-03-21T05:39:57;22.30;76.10
45969;DHT22;31676;40.444;-3.668;2023-03-21T05:42:22;22.30;76.10
45969;DHT22;31676;40.444;-3.668;2023-03-21T05:44:49;22.30;76.10
45969;DHT22;31676;40.444;-3.668;2023-03-21T05:47:15;22.30;76.10
45969;DHT22;31676;40.444;-3.668;2023-03-21T05:49:41;22.30;76.10
45969;DHT22;31676;40.444;-3.668;2023-03-21T05:52:07;22.30;76.10
45969;DHT22;31676;40.444;-3.668;2023-03-21T05:54:33;22.30;76.10
45969;DHT22;31676;40.444;-3.668;2023-03-21T05:56:59;22.30;76.10
45969;DHT22;31676;40.444;-3.668;2023-03-21T05:59:25;22.30;76.10
45969;DHT22;31676;40.444;-3.668;2023-03-21T06:01:50;22.30;76.10
45969;DHT22;31676;40.444;-3.668;2023-03-21T06:04:16;22.30;76.10
45969;DHT22;31676;40.444;-3.668;2023-03-21T06:06:42;22.30;76.10
45969;DHT22;31676;40.444;-3.668;2023-03-21T06:09:07;22.30;76.30
45969;DHT22;31676;40.444;-3.668;2023-03-21T06:11:34;22.30;76.10
45969;DHT22;31676;40.444;-3.668;2023-03-21T06:14:00;22.30;76.10
45969;DHT22;31676;40.444;-3.668;2023-03-21T06:16:26;22.30;76.10
45969;DHT22;31676;40.444;-3.668;2023-03-21T06:18:53;22.30;76.10
45969;DHT22;31676;40.444;-3.668;2023-03-21T06:21:19;22.30;76.10
45969;DHT22;31676;40.444;-3.668;2023-03-21T06:23:45;22.30;76.10
45969;DHT22;31676;40.444;-3.668;2023-03-21T06:26:11;22.30;76.10
45969;DHT22;31676;40.444;-3.668;2023-03-21T06:28:37;22.30;76.10
45969;DHT22;31676;40.444;-3.668;2023-03-21T06:31:03;22.30;76.10
45969;DHT22;31676;40.444;-3.668;2023-03-21T06:33:29;22.30;76.10
45969;DHT22;31676;40.444;-3.668;2023-03-21T06:35:55;22.30;76.10
45969;DHT22;31676;40.444;-3.668;2023-03-21T06:38:21;22.30;76.20
45969;DHT22;31676;40.444;-3.668;2023-03-21T06:40:47;22.20;76.10
45969;DHT22;31676;40.444;-3.668;2023-03-21T06:43:13;22.30;76.10
45969;DHT22;31676;40.444;-3.668;2023-03-21T06:45:40;22.20;76.00
45969;DHT22;31676;40.444;-3.668;2023-03-21T06:48:06;22.20;76.00
45969;DHT22;31676;40.444;-3.668;2023-03-21T06:50:31;22.20;76.00
45969;DHT22;31676;40.444;-3.668;2023-03-21T06:52:57;22.20;76.00
45969;DHT22;31676;40.444;-3.668;2023-03-21T06:55:24;22.20;76.00
45969;DHT22;31676;40.444;-3.668;2023-03-21T06:57:51;22.20;76.10
45969;DHT22;31676;40.444;-3.668;2023-03-21T07:00:18;22.20;76.10
45969;DHT22;31676;40.444;-3.668;2023-03-21T07:02:44;22.20;76.00
45969;DHT22;31676;40.444;-3.668;2023-03-21T07:05:10;22.20;76.10
45969;DHT22;31676;40.444;-3.668;2023-03-21T07:07:36;22.20;76.00
45969;DHT22;31676;40.444;-3.668;2023-03-21T07:10:03;22.20;76.10
45969;DHT22;31676;40.444;-3.668;2023-03-21T07:12:28;22.20;76.10
45969;DHT22;31676;40.444;-3.668;2023-03-21T07:14:58;22.20;76.10
45969;DHT22;31676;40.444;-3.668;2023-03-21T07:17:25;22.20;76.10
45969;DHT22;31676;40.444;-3.668;2023-03-21T07:19:50;22.20;76.10
45969;DHT22;31676;40.444;-3.668;2023-03-21T07:22:16;22.20;76.00
45969;DHT22;31676;40.444;-3.668;2023-03-21T07:24:42;22.20;76.00
45969;DHT22;31676;40.444;-3.668;2023-03-21T07:27:08;22.20;76.10
45969;DHT22;31676;40.444;-3.668;2023-03-21T07:29:34;22.20;76.00
45969;DHT22;31676;40.444;-3.668;2023-03-21T07:32:00;22.20;76.10
45969;DHT22;31676;40.444;-3.668;2023-03-21T07:34:25;22.20;76.00
45969;DHT22;31676;40.444;-3.668;2023-03-21T07:36:55;22.20;76.10
45969;DHT22;31676;40.444;-3.668;2023-03-21T07:39:21;22.20;76.00
45969;DHT22;31676;40.444;-3.668;2023-03-21T07:41:47;22.20;76.00
45969;DHT22;31676;40.444;-3.668;2023-03-21T07:44:13;22.10;76.00
45969;DHT22;31676;40.444;-3.668;2023-03-21T07:46:39;22.20;76.00
45969;DHT22;31676;40.444;-3.668;2023-03-21T07:49:05;22.20;76.00
45969;DHT22;31676;40.444;-3.668;2023-03-21T07:51:33;22.20;76.00
45969;DHT22;31676;40.444;-3.668;2023-03-21T07:54:00;22.20;76.10
45969;DHT22;31676;40.444;-3.668;2023-03-21T07:56:26;22.20;76.10
45969;DHT22;31676;40.444;-3.668;2023-03-21T07:58:52;22.20;76.10
45969;DHT22;31676;40.444;-3.668;2023-03-21T08:01:18;22.20;76.10
45969;DHT22;31676;40.444;-3.668;2023-03-21T08:03:44;22.20;76.10
45969;DHT22;31676;40.444;-3.668;2023-03-21T08:06:09;22.20;76.00
45969;DHT22;31676;40.444;-3.668;2023-03-21T08:08:35;22.10;76.00
45969;DHT22;31676;40.444;-3.668;2023-03-21T08:11:02;22.20;76.10
45969;DHT22;31676;40.444;-3.668;2023-03-21T08:13:28;22.20;76.10
45969;DHT22;31676;40.444;-3.668;2023-03-21T08:15:54;22.10;76.00
45969;DHT22;31676;40.444;-3.668;2023-03-21T08:18:20;22.20;76.10
45969;DHT22;31676;40.444;-3.668;2023-03-21T08:20:49;22.10;76.00
45969;DHT22;31676;40.444;-3.668;2023-03-21T08:23:15;22.10;76.00
45969;DHT22;31676;40.444;-3.668;2023-03-21T08:25:41;22.10;76.00
45969;DHT22;31676;40.444;-3.668;2023-03-21T08:28:07;22.10;76.00
45969;DHT22;31676;40.444;-3.668;2023-03-21T08:30:32;22.10;76.00
45969;DHT22;31676;40.444;-3.668;2023-03-21T08:32:58;22.10;76.00
45969;DHT22;31676;40.444;-3.668;2023-03-21T08:35:24;22.10;76.00
45969;DHT22;31676;40.444;-3.668;2023-03-21T08:37:50;22.10;76.00
45969;DHT22;31676;40.444;-3.668;2023-03-21T08:40:16;22.10;76.00
45969;DHT22;31676;40.444;-3.668;2023-03-21T08:42:44;22.10;76.00
45969;DHT22;31676;40.444;-3.668;2023-03-21T08:45:11;22.10;76.00
45969;DHT22;31676;40.444;-3.668;2023-03-21T08:47:37;22.10;76.00
45969;DHT22;31676;40.444;-3.668;2023-03-21T08:50:04;22.10;76.00
45969;DHT22;31676;40.444;-3.668;2023-03-21T08:52:31;22.10;76.00
45969;DHT22;31676;40.444;-3.668;2023-03-21T08:54:56;22.10;76.00
45969;DHT22;31676;40.444;-3.668;2023-03-21T08:57:22;22.10;76.00
45969;DHT22;31676;40.444;-3.668;2023-03-21T08:59:48;22.10;76.00
45969;DHT22;31676;40.444;-3.668;2023-03-21T09:02:14;22.10;76.00
45969;DHT22;31676;40.444;-3.668;2023-03-21T09:04:40;22.10;76.00
45969;DHT22;31676;40.444;-3.668;2023-03-21T09:07:08;22.10;76.00
45969;DHT22;31676;40.444;-3.668;2023-03-21T09:09:35;22.10;76.00
45969;DHT22;31676;40.444;-3.668;2023-03-21T09:12:01;22.10;76.00
45969;DHT22;31676;40.444;-3.668;2023-03-21T09:14:27;22.10;76.00
45969;DHT22;31676;40.444;-3.668;2023-03-21T09:16:53;22.10;76.00
45969;DHT22;31676;40.444;-3.668;2023-03-21T09:19:19;22.10;76.00
45969;DHT22;31676;40.444;-3.668;2023-03-21T09:21:45;22.10;76.00
45969;DHT22;31676;40.444;-3.668;2023-03-21T09:24:11;22.10;76.00
45969;DHT22;31676;40.444;-3.668;2023-03-21T09:26:37;22.10;76.00
45969;DHT22;31676;40.444;-3.668;2023-03-21T09:29:03;22.20;76.10
45969;DHT22;31676;40.444;-3.668;2023-03-21T09:31:30;22.20;76.00
45969;DHT22;31676;40.444;-3.668;2023-03-21T09:33:56;22.20;76.10
45969;DHT22;31676;40.444;-3.668;2023-03-21T09:36:23;22.20;76.00
45969;DHT22;31676;40.444;-3.668;2023-03-21T09:38:49;22.20;76.00
45969;DHT22;31676;40.444;-3.668;2023-03-21T09:49:01;22.20;76.00
45969;DHT22;31676;40.444;-3.668;2023-03-21T09:51:33;22.20;76.10
45969;DHT22;31676;40.444;-3.668;2023-03-21T09:54:06;22.20;76.00
45969;DHT22;31676;40.444;-3.668;2023-03-21T09:56:34;22.20;76.00
45969;DHT22;31676;40.444;-3.668;2023-03-21T09:59:00;22.20;76.00
45969;DHT22;31676;40.444;-3.668;2023-03-21T10:01:28;22.20;76.00
45969;DHT22;31676;40.444;-3.668;2023-03-21T10:04:04;22.20;76.00
45969;DHT22;31676;40.444;-3.668;2023-03-21T10:06:30;22.20;76.00
45969;DHT22;31676;40.444;-3.668;2023-03-21T10:09:02;22.20;76.00
45969;DHT22;31676;40.444;-3.668;2023-03-21T10:11:31;22.20;76.00
45969;DHT22;31676;40.444;-3.668;2023-03-21T10:14:04;22.20;75.90
45969;DHT22;31676;40.444;-3.668;2023-03-21T10:16:35;22.30;76.00
45969;DHT22;31676;40.444;-3.668;2023-03-21T10:19:04;22.30;76.00
45969;DHT22;31676;40.444;-3.668;2023-03-21T10:21:34;22.30;76.00
45969;DHT22;31676;40.444;-3.668;2023-03-21T10:24:02;22.30;76.00
45969;DHT22;31676;40.444;-3.668;2023-03-21T10:26:28;22.30;75.90
45969;DHT22;31676;40.444;-3.668;2023-03-21T10:28:56;22.30;75.90
45969;DHT22;31676;40.444;-3.668;2023-03-21T10:31:23;22.30;75.90
45969;DHT22;31676;40.444;-3.668;2023-03-21T10:34:02;22.30;75.90
45969;DHT22;31676;40.444;-3.668;2023-03-21T10:36:30;22.30;75.90
45969;DHT22;31676;40.444;-3.668;2023-03-21T10:39:02;22.30;75.90
45969;DHT22;31676;40.444;-3.668;2023-03-21T10:41:29;22.30;75.90
45969;DHT22;31676;40.444;-3.668;2023-03-21T10:44:09;22.30;75.80
45969;DHT22;31676;40.444;-3.668;2023-03-21T10:46:36;22.30;75.90
45969;DHT22;31676;40.444;-3.668;2023-03-21T10:49:02;22.40;75.90
45969;DHT22;31676;40.444;-3.668;2023-03-21T10:51:31;22.40;75.90
45969;DHT22;31676;40.444;-3.668;2023-03-21T10:53:58;22.40;75.90
45969;DHT22;31676;40.444;-3.668;2023-03-21T10:56:26;22.40;75.80
45969;DHT22;31676;40.444;-3.668;2023-03-21T10:58:53;22.40;75.80
45969;DHT22;31676;40.444;-3.668;2023-03-21T11:01:36;22.40;75.80
45969;DHT22;31676;40.444;-3.668;2023-03-21T11:04:07;22.40;75.80
45969;DHT22;31676;40.444;-3.668;2023-03-21T11:06:35;22.40;75.80
45969;DHT22;31676;40.444;-3.668;2023-03-21T11:09:07;22.40;75.80
45969;DHT22;31676;40.444;-3.668;2023-03-21T11:11:36;22.40;75.80
45969;DHT22;31676;40.444;-3.668;2023-03-21T11:14:02;22.40;75.70
45969;DHT22;31676;40.444;-3.668;2023-03-21T11:19:01;22.50;75.80
45969;DHT22;31676;40.444;-3.668;2023-03-21T11:21:27;22.50;75.80
45969;DHT22;31676;40.444;-3.668;2023-03-21T11:23:59;22.50;75.70
45969;DHT22;31676;40.444;-3.668;2023-03-21T11:26:29;22.50;75.80
45969;DHT22;31676;40.444;-3.668;2023-03-21T11:28:56;22.50;75.70
45969;DHT22;31676;40.444;-3.668;2023-03-21T11:31:35;22.50;75.70
45969;DHT22;31676;40.444;-3.668;2023-03-21T11:34:04;22.50;75.70
45969;DHT22;31676;40.444;-3.668;2023-03-21T11:36:32;22.60;75.70
45969;DHT22;31676;40.444;-3.668;2023-03-21T11:41:47;22.60;75.70
45969;DHT22;31676;40.444;-3.668;2023-03-21T11:44:38;22.60;75.70
45969;DHT22;31676;40.444;-3.668;2023-03-21T11:47:07;22.60;75.70
45969;DHT22;31676;40.444;-3.668;2023-03-21T11:49:34;22.60;75.70
45969;DHT22;31676;40.444;-3.668;2023-03-21T12:02:02;22.60;75.60
45969;DHT22;31676;40.444;-3.668;2023-03-21T12:09:54;22.60;75.60
45969;DHT22;31676;40.444;-3.668;2023-03-21T12:12:34;22.70;75.60
45969;DHT22;31676;40.444;-3.668;2023-03-21T12:15:19;22.70;75.60
45969;DHT22;31676;40.444;-3.668;2023-03-21T12:23:15;22.70;75.60
45969;DHT22;31676;40.444;-3.668;2023-03-21T12:29:09;22.70;75.60
45969;DHT22;31676;40.444;-3.668;2023-03-21T12:42:02;22.70;75.60
45969;DHT22;31676;40.444;-3.668;2023-03-21T12:44:39;22.80;75.60
45969;DHT22;31676;40.444;-3.668;2023-03-21T12:50:43;22.80;75.60
45969;DHT22;31676;40.444;-3.668;2023-03-21T12:52:57;22.80;75.60
45969;DHT22;31676;40.444;-3.668;2023-03-21T12:55:24;22.80;75.60
45969;DHT22;31676;40.444;-3.668;2023-03-21T12:57:54;22.80;75.60
45969;DHT22;31676;40.444;-3.668;2023-03-21T13:10:43;22.80;75.50
45969;DHT22;31676;40.444;-3.668;2023-03-21T13:13:19;22.90;75.60
45969;DHT22;31676;40.444;-3.668;2023-03-21T13:23:57;22.90;75.50
45969;DHT22;31676;40.444;-3.668;2023-03-21T13:26:37;22.90;75.60
45969;DHT22;31676;40.444;-3.668;2023-03-21T13:29:18;22.90;75.50
45969;DHT22;31676;40.444;-3.668;2023-03-21T13:31:47;22.90;75.50
45969;DHT22;31676;40.444;-3.668;2023-03-21T13:34:13;22.90;75.50
45969;DHT22;31676;40.444;-3.668;2023-03-21T13:36:39;22.90;75.40
45969;DHT22;31676;40.444;-3.668;2023-03-21T13:39:11;22.90;75.40
45969;DHT22;31676;40.444;-3.668;2023-03-21T13:41:41;23.00;75.50
45969;DHT22;31676;40.444;-3.668;2023-03-21T13:44:15;23.00;75.50
45969;DHT22;31676;40.444;-3.668;2023-03-21T13:46:44;23.00;75.50
45969;DHT22;31676;40.444;-3.668;2023-03-21T13:49:26;23.00;75.50
45969;DHT22;31676;40.444;-3.668;2023-03-21T13:51:53;23.00;75.40
45969;DHT22;31676;40.444;-3.668;2023-03-21T13:54:21;23.00;75.40
45969;DHT22;31676;40.444;-3.668;2023-03-21T13:56:49;23.00;75.40
45969;DHT22;31676;40.444;-3.668;2023-03-21T13:59:16;23.00;75.40
45969;DHT22;31676;40.444;-3.668;2023-03-21T14:01:58;23.00;75.40
45969;DHT22;31676;40.444;-3.668;2023-03-21T14:04:25;23.10;75.50
45969;DHT22;31676;40.444;-3.668;2023-03-21T14:09:28;23.10;75.50
45969;DHT22;31676;40.444;-3.668;2023-03-21T14:11:55;23.10;75.40
45969;DHT22;31676;40.444;-3.668;2023-03-21T14:14:23;23.10;75.40
45969;DHT22;31676;40.444;-3.668;2023-03-21T14:16:53;23.10;75.40
45969;DHT22;31676;40.444;-3.668;2023-03-21T14:19:19;23.10;75.40
45969;DHT22;31676;40.444;-3.668;2023-03-21T14:21:46;23.10;75.40
45969;DHT22;31676;40.444;-3.668;2023-03-21T14:24:12;23.10;75.40
45969;DHT22;31676;40.444;-3.668;2023-03-21T14:26:42;23.10;75.40
45969;DHT22;31676;40.444;-3.668;2023-03-21T14:29:09;23.10;75.40
45969;DHT22;31676;40.444;-3.668;2023-03-21T14:31:39;23.10;75.40
45969;DHT22;31676;40.444;-3.668;2023-03-21T14:34:06;23.10;75.40
45969;DHT22;31676;40.444;-3.668;2023-03-21T14:36:36;23.10;75.40
45969;DHT22;31676;40.444;-3.668;2023-03-21T14:39:09;23.10;75.40
45969;DHT22;31676;40.444;-3.668;2023-03-21T14:42:23;23.20;75.40
45969;DHT22;31676;40.444;-3.668;2023-03-21T14:44:22;23.20;75.40
45969;DHT22;31676;40.444;-3.668;2023-03-21T14:47:03;23.20;75.40
45969;DHT22;31676;40.444;-3.668;2023-03-21T14:49:30;23.20;75.40
45969;DHT22;31676;40.444;-3.668;2023-03-21T14:51:59;23.20;75.40
45969;DHT22;31676;40.444;-3.668;2023-03-21T14:54:25;23.20;75.40
45969;DHT22;31676;40.444;-3.668;2023-03-21T14:56:53;23.20;75.40
45969;DHT22;31676;40.444;-3.668;2023-03-21T14:59:21;23.20;75.40
45969;DHT22;31676;40.444;-3.668;2023-03-21T15:01:47;23.20;75.40
45969;DHT22;31676;40.444;-3.668;2023-03-21T15:04:14;23.20;75.40
45969;DHT22;31676;40.444;-3.668;2023-03-21T15:06:56;23.20;75.40
45969;DHT22;31676;40.444;-3.668;2023-03-21T15:09:23;23.20;75.40
45969;DHT22;31676;40.444;-3.668;2023-03-21T15:11:50;23.20;75.40
45969;DHT22;31676;40.444;-3.668;2023-03-21T15:14:17;23.20;75.40
45969;DHT22;31676;40.444;-3.668;2023-03-21T15:16:43;23.30;75.40
45969;DHT22;31676;40.444;-3.668;2023-03-21T15:19:13;23.30;75.40
45969;DHT22;31676;40.444;-3.668;2023-03-21T15:21:40;23.30;75.40
45969;DHT22;31676;40.444;-3.668;2023-03-21T15:24:19;23.30;75.40
45969;DHT22;31676;40.444;-3.668;2023-03-21T15:26:47;23.20;75.40
45969;DHT22;31676;40.444;-3.668;2023-03-21T15:29:13;23.30;75.40
45969;DHT22;31676;40.444;-3.668;2023-03-21T15:31:40;23.30;75.40
45969;DHT22;31676;40.444;-3.668;2023-03-21T15:34:06;23.30;75.30
45969;DHT22;31676;40.444;-3.668;2023-03-21T15:36:34;23.30;75.40
45969;DHT22;31676;40.444;-3.668;2023-03-21T15:39:11;23.30;75.40
45969;DHT22;31676;40.444;-3.668;2023-03-21T15:41:37;23.30;75.40
45969;DHT22;31676;40.444;-3.668;2023-03-21T15:46:33;23.30;75.40
45969;DHT22;31676;40.444;-3.668;2023-03-21T15:51:41;23.30;75.40
45969;DHT22;31676;40.444;-3.668;2023-03-21T15:54:11;23.30;75.40
45969;DHT22;31676;40.444;-3.668;2023-03-21T15:56:38;23.30;75.40
45969;DHT22;31676;40.444;-3.668;2023-03-21T15:59:08;23.30;75.40
45969;DHT22;31676;40.444;-3.668;2023-03-21T16:01:37;23.30;75.40
45969;DHT22;31676;40.444;-3.668;2023-03-21T16:04:08;23.30;75.40
45969;DHT22;31676;40.444;-3.668;2023-03-21T16:06:34;23.30;75.40
45969;DHT22;31676;40.444;-3.668;2023-03-21T16:11:37;23.30;75.40
45969;DHT22;31676;40.444;-3.668;2023-03-21T16:14:03;23.30;75.40
45969;DHT22;31676;40.444;-3.668;2023-03-21T16:16:29;23.30;75.40
45969;DHT22;31676;40.444;-3.668;2023-03-21T16:18:55;23.30;75.40
45969;DHT22;31676;40.444;-3.668;2023-03-21T16:21:23;23.30;75.40
45969;DHT22;31676;40.444;-3.668;2023-03-21T16:23:49;23.30;75.40
45969;DHT22;31676;40.444;-3.668;2023-03-21T16:26:16;23.30;75.40
45969;DHT22;31676;40.444;-3.668;2023-03-21T16:28:43;23.30;75.40
45969;DHT22;31676;40.444;-3.668;2023-03-21T16:31:13;23.30;75.40
45969;DHT22;31676;40.444;-3.668;2023-03-21T16:33:39;23.30;75.50
45969;DHT22;31676;40.444;-3.668;2023-03-21T16:36:08;23.30;75.40
45969;DHT22;31676;40.444;-3.668;2023-03-21T16:38:36;23.30;75.50
45969;DHT22;31676;40.444;-3.668;2023-03-21T16:41:02;23.30;75.50
45969;DHT22;31676;40.444;-3.668;2023-03-21T16:43:28;23.30;75.40
45969;DHT22;31676;40.444;-3.668;2023-03-21T16:45:54;23.30;75.50
45969;DHT22;31676;40.444;-3.668;2023-03-21T16:48:20;23.30;75.50
45969;DHT22;31676;40.444;-3.668;2023-03-21T16:50:46;23.30;75.40
45969;DHT22;31676;40.444;-3.668;2023-03-21T16:53:12;23.30;75.50
45969;DHT22;31676;40.444;-3.668;2023-03-21T16:55:38;23.30;75.50
45969;DHT22;31676;40.444;-3.668;2023-03-21T16:58:04;23.30;75.50
45969;DHT22;31676;40.444;-3.668;2023-03-21T17:00:30;23.30;75.50
45969;DHT22;31676;40.444;-3.668;2023-03-21T17:02:58;23.30;75.50
45969;DHT22;31676;40.444;-3.668;2023-03-21T17:05:25;23.30;75.50
45969;DHT22;31676;40.444;-3.668;2023-03-21T17:07:53;23.30;75.50
45969;DHT22;31676;40.444;-3.668;2023-03-21T17:10:24;23.40;75.60
45969;DHT22;31676;40.444;-3.668;2023-03-21T17:12:50;23.40;75.60
45969;DHT22;31676;40.444;-3.668;2023-03-21T17:15:16;23.40;75.50